Sisters, OR (97759)

11:45 PM PDT on October 22, 2014 (GMT -0700)
Sage Meadow | Change Station
CLOSE
Current Station
Personal Weather Station
Location: Sisters, OR
Elevation: 3163 ft
Nearby Weather Stations

Elev 3163 ft 44.33 °N, 121.54 °W | Updated 3 seconds ago

Overcast
Overcast
49.5 °F
Feels Like 50 °F
N
0.0
Wind Variable Wind from ESE
Gusts 0.0 mph

Today
High -- | Low -- °F
--% Chance of Precip.
Yesterday
High -- | Low -- °F
Precip. -- in
7:29 AM 6:10 PM
Waning Crescent, 0% visible
Pressure 29.81 in
Visibility 10.0 miles
Clouds Few 7000 ft
Mostly Cloudy 9000 ft
Overcast 11000 ft
Windchill 50 °F
Dew Point 45 °F
Humidity 81%
Rainfall 0.04 in
Snow Depth 0 in , 1 in
UV 0 out of 12
Pollen .30 out of 12
Air Quality Not available.
Flu Activity Sporadic
METAR KRDM 230556Z AUTO 19016G21KT 10SM FEW070 BKN090 OVC110 13/06 A2983 RMK AO2 SLP092 T01330061 10161 20133 53007

More Conditions Fewer Conditions

Pressure 29.81 in
Visibility 10.0 miles
Clouds Few 7000 ft
Mostly Cloudy 9000 ft
Overcast 11000 ft
Windchill 50 °F
Dew Point 45 °F
Humidity 81%
Rainfall 0.04 in
Snow Depth 0 in , 1 in
UV 0 out of 12
Pollen .30 out of 12
Air Quality Not available.
Flu Activity Sporadic
METAR KRDM 230556Z AUTO 19016G21KT 10SM FEW070 BKN090 OVC110 13/06 A2983 RMK AO2 SLP092 T01330061 10161 20133 53007

More Conditions Fewer Conditions

10-Day Weather Forecast

Almanac

Astronomy

Oct. 22, 2014 Rise Set
Actual Time 7:29 AM PDT 6:10 PM PDT
Civil Twilight 7:00 AM PDT 6:39 PM PDT
Nautical Twilight 6:26 AM PDT 7:13 PM PDT
Astronomical Twilight 5:52 AM PDT 7:46 PM PDT
Moon 6:13 AM PDT (10/22) 5:41 PM PDT (10/22)
Length of Visible Light 11h 39m
Length of Day
10h 40m
Tomorrow will be 2m 53s shorter.
Waning Crescent, 0% of the Moon is Illuminated
Oct 23
Waning Crescent
Oct 23
New
Oct 30
First Quarter
Nov 6
Full
Nov 14
Last Quarter

Community

WunderPhotos

Upload Photos

1,764,194 photos uploaded!

Nearby

Snow Depth

Station Depth Elevation
Three Creeks Meadow 0 in 5650 ft
Hogg Pass 1 in 4760 ft
Mckenzie 0 in 4800 ft
Jump Off Joe 0 in 3500 ft
Daly Lake 0 in 3600 ft

Earthquake Activity

City Distance Mag. Time & Date
No recent earthquake activity has been reported nearby.
Minimum magnitude displayed is 2.5.

Coastal Water Temperatures

Place Temperature
No Stations Reporting

Nearby Weather Stations